Time;durP1;ratioP1;P1;durP2;ratioP2;P2;SDS_P1;SDS_P2;PMS_P1;PMS_P2;Temp;Humidity;BMP_temperature;BMP_pressure;BME280_temperature;BME280_humidity;BME280_pressure;Samples;Min_cycle;Max_cycle;Signal;HPM_P1;HPM_P2
2023/12/10 00:00:52;;;;;;;17.23;16.23;;;8.80;99.90;;;;;;5064541;28;20451;-84
2023/12/10 00:03:22;;;;;;;17.50;16.70;;;8.80;1.00;;;;;;5070886;28;20446;-83
2023/12/10 00:05:50;;;;;;;16.40;15.37;;;8.80;99.90;;;;;;5070994;28;20454;-83
2023/12/10 00:08:34;;;;;;;15.10;14.23;;;8.70;99.90;;;;;;5071947;28;20469;-85
2023/12/10 00:11:02;;;;;;;16.17;14.83;;;8.70;99.90;;;;;;5070652;28;21036;-85
2023/12/10 00:13:31;;;;;;;15.40;14.53;;;8.80;99.90;;;;;;5068336;28;20551;-85
2023/12/10 00:15:59;;;;;;;15.67;14.33;;;8.70;1.00;;;;;;5059426;28;20459;-84
2023/12/10 00:18:28;;;;;;;15.10;14.10;;;8.70;1.00;;;;;;5071518;28;20467;-84
2023/12/10 00:20:57;;;;;;;15.07;14.00;;;8.70;99.90;;;;;;5069961;28;20999;-85
2023/12/10 00:23:25;;;;;;;15.23;14.03;;;8.80;1.00;;;;;;5068573;28;20478;-83
2023/12/10 00:25:53;;;;;;;17.37;15.97;;;8.80;99.90;;;;;;5072520;28;20450;-80
2023/12/10 00:28:22;;;;;;;15.87;14.57;;;8.70;1.00;;;;;;5069553;28;20474;-84
2023/12/10 00:30:50;;;;;;;15.90;14.43;;;8.70;1.00;;;;;;5068695;28;20971;-85
2023/12/10 00:33:19;;;;;;;17.40;15.90;;;8.80;99.90;;;;;;5071102;28;20457;-85
2023/12/10 00:35:49;;;;;;;17.10;15.40;;;8.80;1.00;;;;;;5072522;28;20840;-85
2023/12/10 00:38:17;;;;;;;19.80;15.20;;;8.80;1.00;;;;;;5067529;28;20455;-86
2023/12/10 00:40:48;;;;;;;16.97;15.27;;;8.80;99.90;;;;;;5070914;28;20547;-84
2023/12/10 00:43:17;;;;;;;16.63;15.10;;;8.70;1.00;;;;;;5073467;28;20539;-85
2023/12/10 00:45:46;;;;;;;17.70;15.80;;;8.80;1.00;;;;;;5074311;28;20541;-83
2023/12/10 00:48:16;;;;;;;17.17;15.60;;;8.80;1.00;;;;;;5071415;28;20490;-83
2023/12/10 00:50:44;;;;;;;17.50;15.77;;;8.80;99.90;;;;;;5071213;28;20512;-83
2023/12/10 00:53:14;;;;;;;17.77;16.13;;;8.80;1.00;;;;;;5072125;28;20439;-83
2023/12/10 00:55:44;;;;;;;17.87;16.33;;;8.80;1.00;;;;;;5069304;28;20473;-83
2023/12/10 00:58:13;;;;;;;17.20;15.63;;;8.70;99.90;;;;;;5065964;28;20446;-83
2023/12/10 01:00:42;;;;;;;17.33;15.63;;;8.70;99.90;;;;;;5071813;28;20450;-84
2023/12/10 01:03:11;;;;;;;18.57;16.40;;;8.80;99.90;;;;;;5071657;28;20951;-83
2023/12/10 01:05:39;;;;;;;18.27;16.53;;;8.80;1.00;;;;;;5072155;28;20447;-84
2023/12/10 01:08:08;;;;;;;18.73;16.50;;;8.70;99.90;;;;;;5068550;28;20481;-82
2023/12/10 01:10:37;;;;;;;18.17;16.30;;;8.70;99.90;;;;;;5071258;28;20528;-82
2023/12/10 01:13:06;;;;;;;17.77;16.13;;;8.80;99.90;;;;;;5070178;28;20467;-83
2023/12/10 01:15:34;;;;;;;20.30;16.73;;;8.80;99.90;;;;;;5068602;28;20471;-84
2023/12/10 01:18:03;;;;;;;20.40;16.17;;;8.70;55.90;;;;;;5062924;28;21068;-82
2023/12/10 01:20:34;;;;;;;17.63;16.17;;;8.70;99.90;;;;;;5071670;28;20442;-81
2023/12/10 01:23:04;;;;;;;25.23;16.37;;;8.80;92.20;;;;;;5075637;28;20458;-82
2023/12/10 01:25:32;;;;;;;17.33;15.73;;;8.70;1.00;;;;;;5077416;28;20827;-82
2023/12/10 01:28:02;;;;;;;15.90;14.70;;;8.80;22.40;;;;;;5066170;28;20538;-82
2023/12/10 01:30:31;;;;;;;18.37;16.80;;;8.70;1.00;;;;;;5069096;28;20487;-82
2023/12/10 01:33:00;;;;;;;17.83;16.17;;;8.80;1.00;;;;;;5074642;28;20454;-81
2023/12/10 01:35:29;;;;;;;18.83;16.00;;;8.80;43.10;;;;;;5067374;28;20462;-82
2023/12/10 01:37:57;;;;;;;18.83;17.30;;;8.80;1.00;;;;;;5070581;28;20463;-82
2023/12/10 01:40:26;;;;;;;17.20;15.50;;;8.80;1.00;;;;;;5070075;28;20459;-83
2023/12/10 01:42:54;;;;;;;17.67;16.20;;;8.80;1.00;;;;;;5072477;28;20461;-82
2023/12/10 01:45:24;;;;;;;17.83;16.03;;;8.70;1.00;;;;;;5070824;28;20466;-84
2023/12/10 01:47:53;;;;;;;21.63;16.80;;;8.80;1.00;;;;;;5067278;28;20577;-83
2023/12/10 01:50:22;;;;;;;19.70;16.40;;;8.70;99.90;;;;;;5067213;28;20528;-82
2023/12/10 01:52:51;;;;;;;20.70;15.93;;;8.70;99.90;;;;;;5070511;28;21027;-83
2023/12/10 01:55:20;;;;;;;17.33;15.93;;;8.70;99.90;;;;;;5071296;28;20512;-83
2023/12/10 01:57:48;;;;;;;18.10;16.30;;;8.80;99.90;;;;;;5072859;28;20907;-82
2023/12/10 02:00:18;;;;;;;17.37;15.20;;;8.80;99.90;;;;;;5071167;28;20467;-82
2023/12/10 02:02:48;;;;;;;16.53;15.10;;;8.80;97.80;;;;;;5067685;28;20455;-84
2023/12/10 02:05:18;;;;;;;20.63;15.30;;;8.80;99.90;;;;;;5069450;28;20935;-83
2023/12/10 02:07:46;;;;;;;15.63;14.50;;;8.80;28.10;;;;;;5065064;28;20454;-84
2023/12/10 02:10:14;;;;;;;16.23;14.87;;;8.80;99.90;;;;;;5069168;28;20474;-83
2023/12/10 02:12:44;;;;;;;17.80;16.10;;;8.70;99.90;;;;;;5072360;28;20485;-82
2023/12/10 02:15:14;;;;;;;16.67;15.20;;;8.70;99.90;;;;;;5069276;28;20479;-82
2023/12/10 02:17:45;;;;;;;15.13;14.23;;;8.80;99.90;;;;;;5068145;28;20584;-82
2023/12/10 02:20:15;;;;;;;16.83;15.20;;;8.70;99.90;;;;;;5070222;28;20470;-83
2023/12/10 02:22:53;;;;;;;16.23;14.73;;;8.80;99.90;;;;;;5070075;28;20866;-83
2023/12/10 02:25:33;;;;;;;15.13;14.03;;;8.80;99.90;;;;;;5067416;28;20904;-82
2023/12/10 02:28:02;;;;;;;16.50;15.00;;;8.70;99.90;;;;;;5068219;28;20455;-83
2023/12/10 02:30:31;;;;;;;16.70;14.80;;;8.80;99.90;;;;;;5069934;28;20449;-83
2023/12/10 02:32:59;;;;;;;17.40;15.80;;;8.80;1.00;;;;;;5070692;28;20537;-81
2023/12/10 02:35:28;;;;;;;15.10;13.97;;;8.80;99.90;;;;;;5068836;28;22001;-82
2023/12/10 02:37:57;;;;;;;14.67;13.77;;;8.60;1.00;;;;;;5068950;28;20482;-83
2023/12/10 02:40:25;;;;;;;16.33;14.90;;;8.60;40.90;;;;;;5068713;28;20769;-83
2023/12/10 02:42:55;;;;;;;14.63;13.83;;;8.50;1.00;;;;;;5067256;28;21353;-83
2023/12/10 02:45:23;;;;;;;13.80;13.20;;;8.50;1.00;;;;;;5072964;28;20475;-83
2023/12/10 02:47:51;;;;;;;14.97;14.10;;;8.50;1.00;;;;;;5070291;28;20968;-82
2023/12/10 02:50:20;;;;;;;14.60;13.70;;;8.50;47.90;;;;;;5072078;28;21026;-84
2023/12/10 02:52:48;;;;;;;15.33;13.87;;;8.50;1.00;;;;;;5069813;28;20499;-84
2023/12/10 02:55:16;;;;;;;15.47;14.43;;;8.50;1.00;;;;;;5069847;28;20496;-83
2023/12/10 02:57:45;;;;;;;14.50;13.63;;;8.50;1.00;;;;;;5063707;28;20457;-82
2023/12/10 03:00:15;;;;;;;15.47;13.90;;;8.50;99.90;;;;;;5067383;28;20521;-83
2023/12/10 03:02:44;;;;;;;14.70;13.67;;;8.40;99.90;;;;;;5063826;28;20454;-82
2023/12/10 03:05:12;;;;;;;14.37;13.63;;;8.50;99.90;;;;;;5068899;28;20459;-83
2023/12/10 03:07:40;;;;;;;14.07;13.50;;;8.40;99.90;;;;;;5067940;28;20458;-84
2023/12/10 03:10:09;;;;;;;14.63;13.60;;;8.40;1.00;;;;;;5067994;28;20540;-83
2023/12/10 03:12:38;;;;;;;15.07;14.03;;;8.40;1.00;;;;;;5069136;28;20460;-83
2023/12/10 03:15:07;;;;;;;14.83;13.90;;;8.40;96.70;;;;;;5068546;28;20479;-83
2023/12/10 03:17:37;;;;;;;17.30;15.80;;;8.40;1.00;;;;;;5069274;28;20542;-83
2023/12/10 03:20:07;;;;;;;15.93;14.77;;;8.40;99.90;;;;;;5072619;28;20871;-83
2023/12/10 03:22:35;;;;;;;14.63;13.93;;;8.40;1.00;;;;;;5066025;28;20463;-84
2023/12/10 03:25:04;;;;;;;16.37;15.03;;;8.40;1.00;;;;;;5070690;28;20460;-84
2023/12/10 03:27:32;;;;;;;15.90;14.40;;;8.40;99.90;;;;;;5070703;28;20594;-83
2023/12/10 03:30:01;;;;;;;15.43;14.40;;;8.40;99.90;;;;;;5068268;28;20479;-83
2023/12/10 03:32:29;;;;;;;15.73;14.53;;;8.40;1.00;;;;;;5068699;28;20501;-83
2023/12/10 03:34:59;;;;;;;15.57;14.43;;;8.40;1.00;;;;;;5072178;28;20936;-83
2023/12/10 03:37:27;;;;;;;15.50;14.27;;;8.40;99.90;;;;;;5066312;28;20507;-83
2023/12/10 03:39:56;;;;;;;14.73;13.80;;;8.40;99.90;;;;;;5068160;28;20475;-83
2023/12/10 03:42:24;;;;;;;15.47;14.20;;;8.40;1.00;;;;;;5071069;28;20504;-83
2023/12/10 03:44:52;;;;;;;15.20;14.20;;;8.40;1.00;;;;;;5070388;28;20451;-83
2023/12/10 03:47:21;;;;;;;14.60;13.70;;;8.40;1.00;;;;;;5066049;28;20486;-83
2023/12/10 03:49:49;;;;;;;14.73;13.83;;;8.40;99.90;;;;;;5068618;28;20942;-83
2023/12/10 03:52:19;;;;;;;15.33;14.23;;;8.30;99.90;;;;;;5069634;28;20497;-83
2023/12/10 03:54:47;;;;;;;15.13;13.83;;;8.40;99.90;;;;;;5067695;28;20446;-83
2023/12/10 03:57:15;;;;;;;14.10;13.10;;;8.40;89.90;;;;;;5064723;28;20486;-83
2023/12/10 03:59:44;;;;;;;13.97;13.07;;;8.30;1.00;;;;;;5066189;28;20493;-82
2023/12/10 04:02:12;;;;;;;16.90;15.60;;;8.30;1.00;;;;;;5069734;28;20450;-82
2023/12/10 04:04:40;;;;;;;16.07;14.67;;;8.30;1.00;;;;;;5069074;28;20459;-83
2023/12/10 04:07:08;;;;;;;16.67;15.13;;;8.30;1.00;;;;;;5070189;28;20441;-82
2023/12/10 04:09:38;;;;;;;14.63;13.80;;;8.30;1.00;;;;;;5070807;28;20504;-82
2023/12/10 04:12:07;;;;;;;14.70;13.80;;;8.40;99.90;;;;;;5071527;28;20554;-82
2023/12/10 04:14:35;;;;;;;15.60;14.43;;;8.40;99.90;;;;;;5070065;28;20553;-82
2023/12/10 04:17:04;;;;;;;14.93;13.87;;;8.40;99.90;;;;;;5069300;28;20569;-83
2023/12/10 04:19:33;;;;;;;14.30;13.03;;;8.40;99.90;;;;;;5068325;28;20474;-83
2023/12/10 04:22:01;;;;;;;15.20;13.90;;;8.40;99.90;;;;;;5072520;28;20461;-83
2023/12/10 04:24:29;;;;;;;14.23;13.10;;;8.40;99.90;;;;;;5070561;28;20474;-84
2023/12/10 04:26:59;;;;;;;15.10;13.27;;;8.40;99.90;;;;;;5073008;28;20462;-83
2023/12/10 04:29:27;;;;;;;14.77;13.70;;;8.40;99.90;;;;;;5074927;28;20469;-82
2023/12/10 04:31:56;;;;;;;14.13;13.43;;;8.40;99.90;;;;;;5072480;28;20543;-83
2023/12/10 04:34:24;;;;;;;13.83;12.83;;;8.40;99.90;;;;;;5072551;28;20460;-83
2023/12/10 04:36:52;;;;;;;13.67;12.87;;;8.40;99.90;;;;;;5070370;28;20554;-83
2023/12/10 04:39:20;;;;;;;14.53;13.37;;;8.40;99.90;;;;;;5071724;28;20571;-82
2023/12/10 04:41:49;;;;;;;14.77;13.70;;;8.30;99.90;;;;;;5074045;28;21016;-82
2023/12/10 04:44:18;;;;;;;14.40;13.40;;;8.40;92.40;;;;;;5072514;28;21001;-83
2023/12/10 04:46:47;;;;;;;13.90;12.90;;;8.30;12.60;;;;;;5072658;28;20458;-82
2023/12/10 04:49:15;;;;;;;13.10;12.40;;;8.30;9.80;;;;;;5069119;28;20474;-83
2023/12/10 04:51:43;;;;;;;15.20;13.80;;;8.20;20.30;;;;;;5069906;28;20600;-84
2023/12/10 04:54:12;;;;;;;17.20;14.17;;;8.20;34.70;;;;;;5072831;28;20636;-84
2023/12/10 04:56:40;;;;;;;13.77;13.07;;;8.20;25.20;;;;;;5070168;28;20471;-84
2023/12/10 04:59:08;;;;;;;14.80;13.50;;;8.20;23.80;;;;;;5072997;28;20483;-84
2023/12/10 05:01:38;;;;;;;14.63;13.27;;;8.20;1.00;;;;;;5059845;28;20458;-84
2023/12/10 05:04:06;;;;;;;14.47;13.03;;;8.30;1.70;;;;;;5068718;28;20451;-85
2023/12/10 05:06:35;;;;;;;15.43;13.80;;;8.30;4.60;;;;;;5067103;28;21152;-84
2023/12/10 05:09:04;;;;;;;15.00;13.70;;;8.30;2.30;;;;;;5072345;28;20478;-84
2023/12/10 05:11:32;;;;;;;14.50;13.40;;;8.30;1.00;;;;;;5071086;28;20451;-84
2023/12/10 05:14:01;;;;;;;14.93;13.60;;;8.30;1.00;;;;;;5071117;28;20455;-84
2023/12/10 05:16:29;;;;;;;15.20;13.90;;;8.30;1.00;;;;;;5070844;28;20862;-82
2023/12/10 05:18:58;;;;;;;14.57;13.23;;;8.30;1.00;;;;;;5071789;28;20577;-83
2023/12/10 05:21:27;;;;;;;14.00;13.30;;;8.40;1.00;;;;;;5070032;28;20461;-84
2023/12/10 05:23:55;;;;;;;14.67;13.77;;;8.30;1.00;;;;;;5065473;28;20458;-84
2023/12/10 05:26:24;;;;;;;15.07;14.07;;;8.30;1.00;;;;;;5068227;28;20949;-84
2023/12/10 05:28:52;;;;;;;14.00;13.13;;;8.30;1.00;;;;;;5067672;28;20975;-84
2023/12/10 05:31:20;;;;;;;14.40;13.40;;;8.30;1.00;;;;;;5068923;28;20896;-83
2023/12/10 05:33:49;;;;;;;14.67;13.20;;;8.30;1.00;;;;;;5072122;28;20448;-83
2023/12/10 05:36:18;;;;;;;14.43;13.50;;;8.30;1.00;;;;;;5075664;28;20446;-84
2023/12/10 05:38:47;;;;;;;13.83;13.03;;;8.30;1.00;;;;;;5058437;28;20467;-83
2023/12/10 05:41:15;;;;;;;14.63;13.40;;;8.40;1.00;;;;;;5073810;28;20451;-83
2023/12/10 05:43:43;;;;;;;14.87;13.80;;;8.40;1.00;;;;;;5072571;28;20528;-83
2023/12/10 05:46:11;;;;;;;12.97;12.47;;;8.40;1.00;;;;;;5073831;28;20567;-83
2023/12/10 05:48:41;;;;;;;13.57;12.40;;;8.40;1.00;;;;;;5066055;28;20515;-83
2023/12/10 05:51:10;;;;;;;13.80;12.57;;;8.40;1.00;;;;;;5073338;28;20451;-83
2023/12/10 05:53:40;;;;;;;14.57;13.43;;;8.40;1.00;;;;;;5072124;28;20443;-84
2023/12/10 05:56:09;;;;;;;14.90;13.40;;;8.40;1.00;;;;;;5071436;28;20470;-83
2023/12/10 05:58:37;;;;;;;14.87;13.37;;;8.40;1.00;;;;;;5069242;28;20487;-83
2023/12/10 06:01:06;;;;;;;14.30;13.30;;;8.40;1.00;;;;;;5067510;28;20463;-83
2023/12/10 06:03:34;;;;;;;14.10;13.20;;;8.40;1.00;;;;;;5070136;28;20561;-82
2023/12/10 06:06:03;;;;;;;15.53;14.07;;;8.40;1.00;;;;;;5070580;28;20516;-82
2023/12/10 06:08:31;;;;;;;13.40;12.50;;;8.30;1.00;;;;;;5069048;28;20556;-82
2023/12/10 06:11:01;;;;;;;13.60;12.40;;;8.30;1.00;;;;;;5071547;28;20468;-81
2023/12/10 06:13:29;;;;;;;13.43;12.53;;;8.30;1.00;;;;;;5075487;28;20459;-83
2023/12/10 06:15:58;;;;;;;14.13;13.03;;;8.30;1.00;;;;;;5072652;28;20476;-82
2023/12/10 06:18:26;;;;;;;13.20;12.40;;;8.30;1.00;;;;;;5068248;28;21178;-83
2023/12/10 06:20:55;;;;;;;13.00;12.50;;;8.30;1.00;;;;;;5067949;28;20453;-82
2023/12/10 06:23:23;;;;;;;13.60;12.53;;;8.30;1.00;;;;;;5070181;28;20507;-82
2023/12/10 06:25:56;;;;;;;13.10;12.20;;;8.30;1.00;;;;;;5068104;28;20478;-82
2023/12/10 06:28:28;;;;;;;12.70;11.90;;;8.30;1.00;;;;;;5068746;28;20552;-83
2023/12/10 06:30:58;;;;;;;14.17;13.07;;;8.30;1.00;;;;;;5071158;28;20458;-83
2023/12/10 06:33:26;;;;;;;13.53;12.80;;;8.30;1.00;;;;;;5069284;28;20565;-83
2023/12/10 06:35:55;;;;;;;12.67;12.07;;;8.30;1.00;;;;;;5071395;28;20481;-81
2023/12/10 06:38:23;;;;;;;12.70;12.20;;;8.30;1.00;;;;;;5070370;28;20494;-82
2023/12/10 06:40:51;;;;;;;12.00;11.50;;;8.30;1.00;;;;;;5069165;28;20473;-82
2023/12/10 06:43:21;;;;;;;12.90;11.90;;;8.20;1.00;;;;;;5071259;28;20451;-82
2023/12/10 06:45:52;;;;;;;13.67;12.40;;;8.20;1.00;;;;;;5071544;28;20460;-82
2023/12/10 06:48:20;;;;;;;13.63;12.63;;;8.20;1.00;;;;;;5069861;28;20524;-82
2023/12/10 06:50:49;;;;;;;14.63;12.20;;;8.20;1.00;;;;;;5065016;28;20448;-82
2023/12/10 06:53:17;;;;;;;13.65;12.45;;;8.10;1.00;;;;;;5070628;28;20456;-83
2023/12/10 06:55:46;;;;;;;13.02;12.23;;;8.10;1.00;;;;;;5069154;28;20442;-84
2023/12/10 06:58:14;;;;;;;13.10;11.80;;;8.10;1.00;;;;;;5070606;28;20217;-83
2023/12/10 07:00:42;;;;;;;12.77;12.13;;;8.10;1.00;;;;;;5065212;28;20460;-85
2023/12/10 07:03:12;;;;;;;13.53;12.60;;;8.20;1.00;;;;;;5068315;28;20450;-85
2023/12/10 07:05:40;;;;;;;12.87;12.10;;;8.20;1.00;;;;;;5074122;28;20450;-84
2023/12/10 07:08:09;;;;;;;13.63;12.57;;;8.30;1.00;;;;;;5069735;28;20956;-84
2023/12/10 07:10:41;;;;;;;12.50;12.00;;;8.30;1.00;;;;;;5070401;28;20462;-85
2023/12/10 07:13:10;;;;;;;14.40;13.27;;;8.30;1.00;;;;;;5071486;28;20474;-83
2023/12/10 07:15:38;;;;;;;13.47;12.50;;;8.30;1.00;;;;;;5067385;28;20455;-85
2023/12/10 07:18:07;;;;;;;12.80;11.90;;;8.40;1.00;;;;;;5067343;28;20467;-85
2023/12/10 07:20:37;;;;;;;12.33;11.50;;;8.40;1.00;;;;;;5072032;28;20858;-82
2023/12/10 07:23:05;;;;;;;12.97;12.07;;;8.40;1.00;;;;;;5067284;28;20737;-84
2023/12/10 07:25:33;;;;;;;15.63;14.03;;;8.30;1.00;;;;;;5067479;28;20464;-82
2023/12/10 07:28:02;;;;;;;13.67;12.57;;;8.30;1.00;;;;;;5072234;28;20430;-83
2023/12/10 07:30:31;;;;;;;13.10;12.13;;;8.40;1.00;;;;;;5068495;28;20979;-84
2023/12/10 07:32:59;;;;;;;13.00;12.23;;;8.40;1.00;;;;;;5068727;28;20540;-82
2023/12/10 07:35:28;;;;;;;13.07;12.10;;;8.30;1.00;;;;;;5073712;28;20841;-83
2023/12/10 07:37:57;;;;;;;14.40;13.23;;;8.40;1.00;;;;;;5071187;28;21083;-82
2023/12/10 07:40:26;;;;;;;14.35;13.40;;;8.40;1.00;;;;;;5075212;28;20447;-81
2023/12/10 07:42:55;;;;;;;13.80;12.80;;;8.40;1.00;;;;;;5068870;28;20547;-82
2023/12/10 07:45:23;;;;;;;14.53;13.50;;;8.40;1.00;;;;;;5068043;28;21106;-83
2023/12/10 07:47:52;;;;;;;12.67;12.00;;;8.30;1.00;;;;;;5069771;28;20487;-82
2023/12/10 07:50:20;;;;;;;14.47;13.17;;;8.30;1.00;;;;;;5070948;28;20503;-81
2023/12/10 07:52:48;;;;;;;13.07;12.00;;;8.30;1.00;;;;;;5071659;28;20654;-82
2023/12/10 07:55:18;;;;;;;14.07;13.00;;;8.40;1.00;;;;;;5069306;28;20454;-81
2023/12/10 07:57:46;;;;;;;15.73;14.37;;;8.30;1.00;;;;;;5070964;28;20455;-83
2023/12/10 08:00:16;;;;;;;14.10;13.00;;;8.40;1.00;;;;;;5075143;28;20470;-81
2023/12/10 08:02:44;;;;;;;14.67;13.33;;;8.30;1.00;;;;;;5071812;28;20459;-81
2023/12/10 08:05:13;;;;;;;14.27;12.80;;;8.30;1.00;;;;;;5067325;28;20455;-82
2023/12/10 08:07:41;;;;;;;15.93;14.53;;;8.40;1.00;;;;;;5071483;28;20454;-81
2023/12/10 08:10:10;;;;;;;14.37;12.07;;;8.40;1.00;;;;;;5075623;28;20469;-82
2023/12/10 08:12:39;;;;;;;13.77;12.97;;;8.40;1.00;;;;;;5074493;28;20909;-81
2023/12/10 08:15:10;;;;;;;14.40;13.07;;;8.50;1.00;;;;;;5074118;28;20457;-82
2023/12/10 08:17:39;;;;;;;11.83;11.13;;;8.50;1.00;;;;;;5071780;28;20454;-82
2023/12/10 08:20:10;;;;;;;14.57;13.37;;;8.60;1.00;;;;;;5069504;28;21027;-81
2023/12/10 08:22:38;;;;;;;12.70;12.10;;;8.60;1.00;;;;;;5068299;28;20479;-82
2023/12/10 08:25:08;;;;;;;12.90;11.93;;;8.60;1.00;;;;;;5067775;28;20462;-81
2023/12/10 08:27:36;;;;;;;12.43;11.43;;;8.70;1.00;;;;;;5068167;28;20947;-81
2023/12/10 08:30:07;;;;;;;13.07;12.17;;;8.80;1.00;;;;;;5066332;28;20732;-81
2023/12/10 08:32:36;;;;;;;12.77;11.90;;;8.90;1.00;;;;;;5063831;28;20798;-81
2023/12/10 08:35:05;;;;;;;14.43;13.05;;;8.90;1.00;;;;;;5063546;28;20438;-81
2023/12/10 08:37:34;;;;;;;12.47;11.60;;;8.90;1.00;;;;;;5069982;28;20193;-81
2023/12/10 08:40:04;;;;;;;13.57;12.27;;;9.10;1.00;;;;;;5071412;28;20600;-80
2023/12/10 08:42:32;;;;;;;14.37;12.87;;;9.10;1.00;;;;;;5076094;28;20441;-82
2023/12/10 08:45:01;;;;;;;12.43;11.63;;;9.30;1.00;;;;;;5069680;28;20543;-81
2023/12/10 08:47:31;;;;;;;12.97;11.80;;;9.30;1.00;;;;;;5066667;28;20462;-79
2023/12/10 08:49:59;;;;;;;14.57;12.37;;;9.50;1.00;;;;;;5066249;28;20462;-81
2023/12/10 08:52:27;;;;;;;14.20;12.90;;;9.50;1.00;;;;;;5071287;28;20459;-81
2023/12/10 08:54:56;;;;;;;11.90;11.13;;;9.40;99.90;;;;;;5073676;28;20524;-82
2023/12/10 08:57:25;;;;;;;12.13;11.33;;;9.40;1.00;;;;;;5075124;28;20455;-81
2023/12/10 09:00:00;;;;;;;13.50;12.43;;;9.40;1.00;;;;;;5071240;28;20935;-81
2023/12/10 09:02:30;;;;;;;15.07;13.20;;;9.50;1.00;;;;;;5071375;28;20423;-81
2023/12/10 09:04:58;;;;;;;12.67;11.60;;;9.50;99.90;;;;;;5073442;28;21015;-81
2023/12/10 09:07:27;;;;;;;12.50;11.80;;;9.50;99.90;;;;;;5069007;28;20963;-81
2023/12/10 09:09:59;;;;;;;13.10;12.40;;;9.50;99.90;;;;;;5074539;28;20488;-80
2023/12/10 09:12:39;;;;;;;12.07;11.50;;;9.50;1.00;;;;;;5074086;28;20463;-80
2023/12/10 09:15:09;;;;;;;13.20;12.30;;;9.50;1.00;;;;;;5071912;28;20461;-81
2023/12/10 09:17:39;;;;;;;12.43;11.60;;;9.40;1.00;;;;;;5070726;28;20560;-81
2023/12/10 09:20:09;;;;;;;12.80;11.63;;;9.40;1.00;;;;;;5075634;28;20483;-80
2023/12/10 09:22:38;;;;;;;16.63;12.37;;;9.40;1.00;;;;;;5073822;28;20450;-81
2023/12/10 09:25:06;;;;;;;13.27;12.40;;;9.60;1.00;;;;;;5072350;28;20514;-81
2023/12/10 09:27:35;;;;;;;12.70;11.80;;;9.70;1.00;;;;;;5078640;28;20453;-79
2023/12/10 09:30:03;;;;;;;13.10;12.17;;;9.70;1.00;;;;;;5078203;28;20477;-82
2023/12/10 09:32:31;;;;;;;13.47;12.13;;;9.90;1.00;;;;;;5070488;28;20450;-81
2023/12/10 09:35:04;;;;;;;14.90;13.93;;;10.10;1.00;;;;;;5075251;28;20462;-80
2023/12/10 09:37:33;;;;;;;13.27;12.20;;;10.40;99.90;;;;;;5073234;28;20779;-79
2023/12/10 09:40:01;;;;;;;13.50;12.47;;;10.20;99.90;;;;;;5079686;28;21279;-81
2023/12/10 09:42:29;;;;;;;11.93;11.50;;;10.10;99.90;;;;;;5079697;28;20559;-79
2023/12/10 09:44:58;;;;;;;12.73;11.90;;;9.80;1.00;;;;;;5079226;28;20460;-80
2023/12/10 09:47:29;;;;;;;13.00;12.13;;;9.70;1.00;;;;;;5079336;28;20497;-80
2023/12/10 09:49:59;;;;;;;13.43;11.97;;;9.70;1.00;;;;;;5077770;28;20470;-80
2023/12/10 09:52:29;;;;;;;12.80;11.90;;;9.70;1.00;;;;;;5068151;28;20443;-79
2023/12/10 09:54:57;;;;;;;12.50;11.70;;;9.50;1.00;;;;;;5075313;28;20449;-81
2023/12/10 09:57:27;;;;;;;12.63;11.83;;;9.30;1.00;;;;;;5071867;28;20201;-79
2023/12/10 09:59:56;;;;;;;11.90;11.20;;;9.30;1.00;;;;;;5070096;28;20481;-80
2023/12/10 10:02:32;;;;;;;12.70;11.80;;;9.20;1.00;;;;;;5074760;28;20446;-79
2023/12/10 10:05:01;;;;;;;12.67;12.13;;;9.20;32.30;;;;;;5073540;28;20462;-81
2023/12/10 10:07:31;;;;;;;12.80;12.10;;;9.10;34.80;;;;;;5090291;28;20501;-79
2023/12/10 10:10:00;;;;;;;12.77;11.33;;;8.90;80.60;;;;;;5070627;28;20488;-80
2023/12/10 10:12:33;;;;;;;12.40;11.40;;;9.00;99.90;;;;;;5077596;28;20511;-79
2023/12/10 10:15:03;;;;;;;13.17;11.77;;;8.90;99.90;;;;;;5073108;28;20455;-78
2023/12/10 10:17:35;;;;;;;12.43;11.60;;;8.90;99.90;;;;;;5075295;28;20549;-81
2023/12/10 10:20:05;;;;;;;12.63;11.83;;;8.90;99.90;;;;;;5069279;28;20473;-80
2023/12/10 10:22:35;;;;;;;12.70;11.50;;;8.90;99.90;;;;;;5075035;28;20443;-80
2023/12/10 10:25:03;;;;;;;12.53;12.03;;;8.90;99.90;;;;;;5073437;28;20458;-82
2023/12/10 10:27:33;;;;;;;12.20;11.50;;;8.80;99.90;;;;;;5074568;28;20979;-80
2023/12/10 10:30:03;;;;;;;11.87;11.37;;;8.70;99.90;;;;;;5078716;28;20494;-80
2023/12/10 10:32:33;;;;;;;11.73;11.13;;;8.80;99.90;;;;;;5074843;28;20542;-80
2023/12/10 10:35:04;;;;;;;12.30;11.70;;;8.80;99.90;;;;;;5070857;28;20451;-79
2023/12/10 10:37:34;;;;;;;11.10;10.43;;;8.80;97.70;;;;;;5072519;28;20966;-80
2023/12/10 10:40:04;;;;;;;11.87;11.07;;;8.70;89.90;;;;;;5075177;28;20519;-79
2023/12/10 10:42:32;;;;;;;11.83;10.97;;;8.70;99.90;;;;;;5067673;28;20498;-80
2023/12/10 10:45:03;;;;;;;11.90;11.20;;;8.70;99.90;;;;;;5074839;28;21273;-80
2023/12/10 10:47:33;;;;;;;11.67;11.10;;;8.60;99.90;;;;;;5068411;28;20461;-80
2023/12/10 10:50:03;;;;;;;11.60;10.80;;;8.70;99.90;;;;;;5069323;28;20477;-80
2023/12/10 10:52:54;;;;;;;11.67;11.10;;;8.60;77.70;;;;;;5073512;28;20457;-81
2023/12/10 10:55:22;;;;;;;11.60;10.87;;;8.60;99.90;;;;;;5070076;28;20551;-81
2023/12/10 10:57:51;;;;;;;11.90;11.30;;;8.60;99.90;;;;;;5073777;28;20537;-80
2023/12/10 11:00:34;;;;;;;11.77;11.27;;;8.60;99.90;;;;;;5069814;28;20474;-80
2023/12/10 11:03:04;;;;;;;11.40;10.90;;;8.60;99.90;;;;;;5071288;28;20468;-80
2023/12/10 11:05:33;;;;;;;13.10;12.30;;;8.70;99.90;;;;;;5072492;28;20461;-80
2023/12/10 11:08:05;;;;;;;12.13;11.30;;;8.70;99.90;;;;;;5073520;28;20462;-80
2023/12/10 11:10:34;;;;;;;12.60;11.40;;;8.80;99.90;;;;;;5072940;28;20461;-81
2023/12/10 11:13:03;;;;;;;12.07;11.40;;;8.70;99.90;;;;;;5072852;28;20435;-79
2023/12/10 11:15:31;;;;;;;11.80;11.40;;;8.70;99.90;;;;;;5069449;28;21152;-80
2023/12/10 11:18:01;;;;;;;12.50;11.60;;;8.70;99.90;;;;;;5072709;28;20454;-81
2023/12/10 11:20:35;;;;;;;11.87;11.27;;;8.70;99.90;;;;;;5069698;28;20571;-80
2023/12/10 11:23:07;;;;;;;12.03;11.10;;;8.80;99.90;;;;;;5071567;28;20582;-81
2023/12/10 11:25:36;;;;;;;12.50;11.80;;;8.80;99.90;;;;;;5073830;28;20947;-81
2023/12/10 11:28:10;;;;;;;12.70;12.00;;;8.90;99.90;;;;;;5071304;28;20459;-81
2023/12/10 11:30:39;;;;;;;12.30;11.60;;;9.00;99.90;;;;;;5074843;28;21318;-81
2023/12/10 11:33:09;;;;;;;12.47;11.57;;;8.90;99.90;;;;;;5071097;28;20459;-81
2023/12/10 11:35:38;;;;;;;12.57;11.70;;;8.90;99.90;;;;;;5072003;28;20911;-80
2023/12/10 11:38:09;;;;;;;13.20;12.00;;;8.90;99.90;;;;;;5068443;28;21078;-81
2023/12/10 11:40:37;;;;;;;13.10;11.97;;;8.90;99.90;;;;;;5075336;28;20945;-79
2023/12/10 11:43:07;;;;;;;13.50;12.37;;;8.80;99.90;;;;;;5071543;28;20473;-81
2023/12/10 11:45:37;;;;;;;13.97;12.57;;;8.80;99.90;;;;;;5074886;28;20471;-81
2023/12/10 11:48:05;;;;;;;13.17;11.87;;;8.80;99.90;;;;;;5071339;28;20461;-81
2023/12/10 11:50:35;;;;;;;12.93;12.33;;;8.80;99.90;;;;;;5070723;28;20502;-81
2023/12/10 11:53:04;;;;;;;13.23;12.33;;;8.90;99.90;;;;;;5070867;28;20963;-81
2023/12/10 11:55:34;;;;;;;13.07;11.97;;;8.80;99.90;;;;;;5067527;28;20448;-81
2023/12/10 11:58:02;;;;;;;13.13;12.03;;;8.70;99.90;;;;;;5067436;28;20485;-83
2023/12/10 12:00:30;;;;;;;12.20;11.30;;;8.70;99.90;;;;;;5074331;28;20569;-81
2023/12/10 12:02:58;;;;;;;12.17;11.47;;;8.80;99.90;;;;;;5072539;28;20461;-80
2023/12/10 12:05:27;;;;;;;13.00;12.10;;;8.90;99.90;;;;;;5070515;28;20439;-81
2023/12/10 12:07:55;;;;;;;12.13;11.23;;;8.90;99.90;;;;;;5066063;28;21273;-80
2023/12/10 12:10:23;;;;;;;12.43;11.70;;;8.90;99.90;;;;;;5068065;28;20986;-81
2023/12/10 12:12:55;;;;;;;13.37;12.40;;;9.10;99.90;;;;;;5070105;28;20569;-80
2023/12/10 12:15:23;;;;;;;14.18;12.80;;;9.10;99.90;;;;;;5064829;28;20509;-80
2023/12/10 12:17:52;;;;;;;12.30;11.50;;;9.10;78.50;;;;;;5069732;28;20204;-81
2023/12/10 12:20:24;;;;;;;12.20;11.50;;;9.10;98.10;;;;;;5070551;28;21013;-81
2023/12/10 12:22:53;;;;;;;13.50;12.47;;;9.00;99.90;;;;;;5071566;28;20449;-81
2023/12/10 12:25:23;;;;;;;13.13;11.90;;;8.90;85.30;;;;;;5065261;28;20447;-79
2023/12/10 12:27:53;;;;;;;12.10;11.50;;;8.90;99.90;;;;;;5071096;28;20455;-82
2023/12/10 12:30:21;;;;;;;13.07;12.07;;;8.90;98.00;;;;;;5067215;28;20489;-81
2023/12/10 12:32:50;;;;;;;12.93;12.13;;;8.90;93.80;;;;;;5073308;28;20459;-82
2023/12/10 12:35:18;;;;;;;12.83;11.87;;;9.00;99.90;;;;;;5068729;28;20462;-80
2023/12/10 12:37:47;;;;;;;11.50;10.87;;;9.00;77.40;;;;;;5066758;28;20508;-82
2023/12/10 12:40:15;;;;;;;13.30;12.30;;;8.90;80.40;;;;;;5074504;28;20479;-83
2023/12/10 12:42:43;;;;;;;12.77;11.77;;;8.90;83.70;;;;;;5073991;28;20457;-82
2023/12/10 12:45:13;;;;;;;12.53;11.43;;;8.90;55.90;;;;;;5072465;28;20451;-80
2023/12/10 12:47:41;;;;;;;15.40;13.83;;;9.00;99.90;;;;;;5072709;28;20470;-83
2023/12/10 12:50:10;;;;;;;12.07;11.33;;;9.00;63.60;;;;;;5071824;28;21346;-81
2023/12/10 12:52:39;;;;;;;12.20;11.40;;;8.90;67.70;;;;;;5072343;28;20445;-81